Time;durP1;ratioP1;P1;durP2;ratioP2;P2;SDS_P1;SDS_P2;PMS_P1;PMS_P2;Temp;Humidity;BMP_temperature;BMP_pressure;BME280_temperature;BME280_humidity;BME280_pressure;Samples;Min_cycle;Max_cycle;Signal;HPM_P1;HPM_P2
2024/04/20 00:00:40;;;;;;;2.35;1.58;;;;;;;4.87;58.65;101094.91;5373628;26;20016;-54
2024/04/20 00:03:07;;;;;;;6.45;1.75;;;;;;;4.88;58.76;101088.97;5411429;26;20072;-48
2024/04/20 00:05:38;;;;;;;7.50;0.90;;;;;;;4.85;58.65;101091.41;5403368;26;20961;-47
2024/04/20 00:08:04;;;;;;;;;;;;;;;4.75;59.13;101090.19;5400576;26;20034;-48
2024/04/20 00:10:31;;;;;;;4.95;2.05;;;;;;;4.76;58.74;101098.75;5396000;26;19943;-61
2024/04/20 00:12:58;;;;;;;5.18;1.85;;;;;;;4.74;58.69;101088.44;5394382;26;19996;-46
2024/04/20 00:15:25;;;;;;;2.67;1.95;;;;;;;4.71;58.87;101092.56;5401643;26;20003;-45
2024/04/20 00:17:51;;;;;;;3.72;1.63;;;;;;;4.68;59.14;101088.22;5392922;26;20088;-47
2024/04/20 00:20:18;;;;;;;2.15;1.88;;;;;;;4.70;58.77;101090.84;5395690;26;20000;-48
2024/04/20 00:22:45;;;;;;;1.67;1.35;;;;;;;4.69;59.28;101091.66;5403468;26;20008;-51
2024/04/20 00:25:12;;;;;;;6.53;2.22;;;;;;;4.65;59.08;101087.19;5391506;26;20476;-49
2024/04/20 00:27:38;;;;;;;4.18;3.47;;;;;;;4.63;59.28;101089.72;5392614;26;20000;-51
2024/04/20 00:30:08;;;;;;;6.25;1.88;;;;;;;4.65;59.13;101084.63;5394524;26;19995;-47
2024/04/20 00:32:34;;;;;;;1.77;1.67;;;;;;;4.65;59.16;101087.19;5392566;26;20019;-49
2024/04/20 00:35:01;;;;;;;2.38;1.95;;;;;;;4.63;59.12;101090.59;5390660;26;20007;-48
2024/04/20 00:37:28;;;;;;;6.70;1.05;;;;;;;4.60;58.97;101090.47;5398139;26;20318;-46
2024/04/20 00:39:55;;;;;;;9.55;2.03;;;;;;;4.61;59.09;101087.09;5390541;26;20015;-46
2024/04/20 00:42:21;;;;;;;2.05;1.90;;;;;;;4.58;59.06;101092.09;5390464;26;20019;-47
2024/04/20 00:44:48;;;;;;;1.90;1.80;;;;;;;4.55;58.93;101089.41;5382723;26;20011;-46
2024/04/20 00:47:15;;;;;;;6.45;2.00;;;;;;;4.62;58.91;101091.41;5391928;26;20004;-49
2024/04/20 00:49:42;;;;;;;5.38;1.95;;;;;;;4.59;59.06;101096.41;5385985;26;20475;-47
2024/04/20 00:52:09;;;;;;;4.38;1.52;;;;;;;4.59;58.92;101098.97;5391027;26;19996;-48
2024/04/20 00:54:37;;;;;;;2.88;1.90;;;;;;;4.55;58.92;101099.69;5386676;26;20004;-45
2024/04/20 00:57:05;;;;;;;3.35;1.55;;;;;;;4.56;58.89;101108.28;5394090;26;20360;-46
2024/04/20 00:59:33;;;;;;;2.15;1.70;;;;;;;4.48;59.07;101101.13;5379255;26;20085;-44
2024/04/20 01:02:01;;;;;;;4.97;2.65;;;;;;;4.49;59.22;101117.38;5384676;26;20004;-45
2024/04/20 01:04:28;;;;;;;3.22;1.70;;;;;;;4.48;59.00;101113.09;5375304;26;20015;-47
2024/04/20 01:06:55;;;;;;;3.53;2.65;;;;;;;4.42;59.43;101105.16;5382785;26;20049;-44
2024/04/20 01:09:22;;;;;;;2.72;2.08;;;;;;;4.42;59.34;101110.28;5394337;26;20000;-45
2024/04/20 01:11:50;;;;;;;2.65;1.80;;;;;;;4.41;59.05;101116.22;5386621;26;21522;-47
2024/04/20 01:14:16;;;;;;;5.03;1.30;;;;;;;4.39;59.42;101116.16;5391108;26;20501;-45
2024/04/20 01:16:43;;;;;;;9.30;1.88;;;;;;;4.37;59.29;101113.56;5374932;26;20019;-45
2024/04/20 01:19:14;;;;;;;5.13;1.48;;;;;;;4.35;59.39;101120.28;5373148;26;20032;-47
2024/04/20 01:21:41;;;;;;;5.78;1.55;;;;;;;4.31;59.43;101117.53;5370880;26;20000;-48
2024/04/20 01:24:10;;;;;;;6.47;1.73;;;;;;;4.29;59.61;101114.91;5371053;26;20048;-46
2024/04/20 01:26:36;;;;;;;4.88;2.05;;;;;;;4.27;59.62;101126.81;5386560;26;20008;-45
2024/04/20 01:29:03;;;;;;;5.22;2.20;;;;;;;4.24;59.48;101121.56;5385397;26;20007;-49
2024/04/20 01:31:30;;;;;;;2.65;1.73;;;;;;;4.23;59.75;101130.91;5383635;26;20004;-46
2024/04/20 01:33:57;;;;;;;4.32;1.48;;;;;;;4.20;59.74;101129.94;5394007;26;20038;-46
2024/04/20 01:36:24;;;;;;;4.25;2.20;;;;;;;4.20;59.98;101135.06;5389124;26;20010;-47
2024/04/20 01:38:53;;;;;;;1.67;1.58;;;;;;;4.16;59.73;101133.19;5379377;26;20007;-45
2024/04/20 01:41:20;;;;;;;1.15;0.65;;;;;;;4.14;59.78;101134.81;5388225;26;20600;-46
2024/04/20 01:43:47;;;;;;;5.28;1.60;;;;;;;4.15;59.54;101136.56;5384390;26;20008;-46
2024/04/20 01:46:13;;;;;;;7.88;2.05;;;;;;;4.13;59.92;101143.31;5386098;26;19999;-45
2024/04/20 01:48:40;;;;;;;7.47;1.88;;;;;;;4.11;59.81;101146.69;5387962;26;20008;-45
2024/04/20 01:51:08;;;;;;;2.65;1.95;;;;;;;4.09;59.92;101143.19;5379394;26;20015;-46
2024/04/20 01:53:34;;;;;;;4.82;2.42;;;;;;;4.08;59.87;101146.56;5382771;26;20000;-47
2024/04/20 01:56:04;;;;;;;4.15;2.42;;;;;;;4.08;59.79;101150.81;5378308;26;20015;-45
2024/04/20 01:58:33;;;;;;;;;;;;;;;4.00;60.26;101153.06;5377093;26;20131;-47
2024/04/20 02:00:59;;;;;;;5.45;2.28;;;;;;;3.99;60.29;101146.19;5390557;26;19926;-45
2024/04/20 02:03:27;;;;;;;7.13;3.17;;;;;;;3.98;60.00;101150.44;5391147;26;20014;-48
2024/04/20 02:05:54;;;;;;;5.10;1.73;;;;;;;3.95;60.12;101152.00;5382930;26;20623;-47
2024/04/20 02:08:20;;;;;;;3.15;2.25;;;;;;;3.93;60.18;101151.06;5390611;26;20023;-46
2024/04/20 02:10:47;;;;;;;2.22;1.88;;;;;;;3.92;60.28;101150.16;5385776;26;20081;-47
2024/04/20 02:13:14;;;;;;;7.97;2.88;;;;;;;3.88;60.60;101153.41;5387328;26;19999;-47
2024/04/20 02:15:40;;;;;;;2.72;1.48;;;;;;;3.86;60.43;101148.22;5385023;26;20003;-47
2024/04/20 02:18:07;;;;;;;1.90;1.40;;;;;;;3.84;60.91;101157.53;5366933;26;20705;-47
2024/04/20 02:20:34;;;;;;;3.45;1.10;;;;;;;3.82;60.83;101154.03;5392356;26;20365;-50
2024/04/20 02:23:01;;;;;;;3.38;1.90;;;;;;;3.81;60.98;101149.72;5392627;26;20088;-46
2024/04/20 02:25:28;;;;;;;4.50;2.30;;;;;;;3.77;61.04;101152.97;5383135;26;20457;-46
2024/04/20 02:27:54;;;;;;;2.33;2.03;;;;;;;3.78;61.11;101153.84;5375128;26;20013;-48
2024/04/20 02:30:21;;;;;;;7.93;2.45;;;;;;;3.78;60.99;101157.25;5382475;26;20000;-47
2024/04/20 02:32:48;;;;;;;5.40;1.77;;;;;;;3.75;60.96;101152.00;5392676;26;20016;-46
2024/04/20 02:35:15;;;;;;;6.40;1.55;;;;;;;3.75;60.88;101152.00;5378697;26;20016;-46
2024/04/20 02:37:42;;;;;;;3.47;2.10;;;;;;;3.73;60.69;101163.88;5389713;26;20011;-46
2024/04/20 02:40:09;;;;;;;4.85;2.38;;;;;;;3.72;60.97;101163.00;5381972;26;20014;-50
2024/04/20 02:42:36;;;;;;;2.55;1.88;;;;;;;3.71;60.69;101160.38;5376940;26;20457;-49
2024/04/20 02:45:04;;;;;;;4.85;2.38;;;;;;;3.70;60.62;101168.88;5395670;26;20008;-47
2024/04/20 02:47:30;;;;;;;5.15;1.73;;;;;;;3.68;61.12;101165.38;5386354;26;20072;-51
2024/04/20 02:49:57;;;;;;;3.95;2.42;;;;;;;3.65;61.29;101170.38;5388405;26;20020;-46
2024/04/20 02:52:24;;;;;;;5.95;2.53;;;;;;;3.64;61.25;101174.59;5379734;26;20206;-47
2024/04/20 02:54:51;;;;;;;10.23;2.28;;;;;;;3.64;61.28;101173.75;5385372;26;20507;-51
2024/04/20 02:57:17;;;;;;;4.75;2.58;;;;;;;3.62;61.23;101173.69;5390451;26;20080;-48
2024/04/20 02:59:44;;;;;;;5.60;3.08;;;;;;;3.60;61.51;101168.50;5382360;26;20015;-49
2024/04/20 03:02:12;;;;;;;7.13;2.97;;;;;;;3.59;61.21;101170.97;5393015;26;20007;-49
2024/04/20 03:04:39;;;;;;;3.97;3.05;;;;;;;3.58;61.23;101174.34;5391447;26;20099;-46
2024/04/20 03:07:06;;;;;;;2.30;2.00;;;;;;;3.56;61.78;101175.97;5384993;26;20498;-49
2024/04/20 03:09:33;;;;;;;4.20;2.92;;;;;;;3.53;61.62;101171.59;5381430;26;20019;-49
2024/04/20 03:12:00;;;;;;;5.43;2.35;;;;;;;3.50;61.62;101181.69;5392069;26;20015;-45
2024/04/20 03:14:26;;;;;;;5.90;1.52;;;;;;;3.50;61.62;101185.91;5380920;26;20670;-51
2024/04/20 03:16:53;;;;;;;6.10;2.40;;;;;;;3.49;61.63;101187.63;5393474;26;20054;-47
2024/04/20 03:19:20;;;;;;;4.03;2.38;;;;;;;3.48;61.26;101188.44;5382763;26;20004;-48
2024/04/20 03:21:47;;;;;;;4.35;2.47;;;;;;;3.46;61.94;101192.59;5377174;26;20016;-47
2024/04/20 03:24:14;;;;;;;5.00;1.75;;;;;;;3.44;61.78;101197.66;5371013;26;20059;-49
2024/04/20 03:26:41;;;;;;;3.75;2.33;;;;;;;3.43;62.00;101195.03;5373875;26;20004;-47
2024/04/20 03:29:07;;;;;;;4.18;2.45;;;;;;;3.41;61.86;101196.66;5387540;26;20085;-46
2024/04/20 03:31:34;;;;;;;5.70;2.53;;;;;;;3.42;62.02;101201.84;5384639;26;20016;-46
2024/04/20 03:34:01;;;;;;;9.48;2.28;;;;;;;3.40;61.88;101200.88;5396445;26;20050;-45
2024/04/20 03:36:28;;;;;;;3.78;2.00;;;;;;;3.39;61.91;101203.38;5378294;26;20004;-47
2024/04/20 03:38:55;;;;;;;6.43;2.03;;;;;;;3.39;61.97;101200.81;5384238;26;20015;-46
2024/04/20 03:41:22;;;;;;;3.85;2.10;;;;;;;3.38;62.22;101197.38;5395677;26;20025;-47
2024/04/20 03:43:49;;;;;;;3.40;2.22;;;;;;;3.36;62.28;101204.13;5381962;26;20070;-48
2024/04/20 03:46:16;;;;;;;3.65;0.70;;;;;;;3.37;62.00;101205.88;5395941;26;20537;-47
2024/04/20 03:48:42;;;;;;;5.82;2.08;;;;;;;3.33;62.33;101203.97;5391209;26;20016;-46
2024/04/20 03:51:10;;;;;;;9.13;2.10;;;;;;;3.33;61.93;101215.09;5374309;26;20004;-48
2024/04/20 03:53:36;;;;;;;3.70;2.28;;;;;;;3.28;62.83;101220.81;5391442;26;20444;-47
2024/04/20 03:56:03;;;;;;;6.22;2.20;;;;;;;3.29;62.43;101218.34;5381639;26;20527;-47
2024/04/20 03:58:30;;;;;;;2.38;1.65;;;;;;;3.28;62.47;101216.56;5379121;26;20461;-47
2024/04/20 04:00:58;;;;;;;4.00;1.67;;;;;;;3.28;62.67;101221.69;5379478;26;20001;-47
2024/04/20 04:03:26;;;;;;;5.97;2.50;;;;;;;3.26;62.36;101223.31;5380770;26;20018;-46
2024/04/20 04:05:54;;;;;;;3.65;2.03;;;;;;;3.27;62.40;101221.63;5377061;26;20074;-46
2024/04/20 04:08:23;;;;;;;15.52;2.33;;;;;;;3.25;62.79;101221.56;5342110;26;20024;-47
2024/04/20 04:10:49;;;;;;;6.90;2.50;;;;;;;3.21;62.67;101219.66;5365090;26;20005;-55
2024/04/20 04:13:17;;;;;;;4.30;1.00;;;;;;;3.22;62.54;101223.97;5356256;26;20421;-48
2024/04/20 04:15:44;;;;;;;12.55;2.00;;;;;;;3.21;62.52;101232.47;5358483;26;20789;-48
2024/04/20 04:18:13;;;;;;;4.40;1.83;;;;;;;3.19;62.67;101234.06;5359543;26;20036;-47
2024/04/20 04:20:40;;;;;;;5.75;1.95;;;;;;;3.17;62.52;101238.22;5359563;26;20009;-46
2024/04/20 04:23:07;;;;;;;5.03;1.80;;;;;;;3.15;62.68;101234.72;5357992;26;20081;-49
2024/04/20 04:25:35;;;;;;;8.15;2.08;;;;;;;3.13;62.59;101237.22;5368457;26;20021;-46
2024/04/20 04:28:02;;;;;;;7.72;1.70;;;;;;;3.13;62.74;101246.56;5369910;26;20081;-46
2024/04/20 04:30:29;;;;;;;4.40;2.47;;;;;;;3.08;62.60;101239.56;5375184;26;20461;-46
2024/04/20 04:32:56;;;;;;;5.03;1.92;;;;;;;3.07;62.57;101242.94;5379870;26;20054;-49
2024/04/20 04:35:26;;;;;;;5.50;2.08;;;;;;;3.05;62.88;101238.53;5383395;26;20057;-48
2024/04/20 04:37:53;;;;;;;5.53;1.95;;;;;;;3.04;62.81;101244.47;5392699;26;20042;-50
2024/04/20 04:40:20;;;;;;;1.70;1.50;;;;;;;2.99;62.78;101244.25;5382040;26;20015;-50
2024/04/20 04:42:51;;;;;;;8.98;2.30;;;;;;;2.96;62.82;101244.09;5385867;26;20113;-47
2024/04/20 04:45:20;;;;;;;3.45;1.92;;;;;;;2.94;62.99;101250.84;5387474;26;20138;-47
2024/04/20 04:47:47;;;;;;;2.45;1.90;;;;;;;2.92;63.02;101247.31;5389101;26;20014;-50
2024/04/20 04:50:14;;;;;;;3.03;2.15;;;;;;;2.90;63.28;101256.63;5381751;26;20015;-48
2024/04/20 04:52:41;;;;;;;5.00;1.80;;;;;;;2.91;63.36;101263.47;5395670;26;20003;-50
2024/04/20 04:55:08;;;;;;;4.95;2.92;;;;;;;2.90;62.97;101260.03;5379839;26;20004;-47
2024/04/20 04:57:35;;;;;;;5.53;1.95;;;;;;;2.89;63.29;101267.63;5379682;26;20075;-48
2024/04/20 05:00:03;;;;;;;9.23;2.08;;;;;;;2.90;63.34;101270.28;5396888;26;20003;-49
2024/04/20 05:02:29;;;;;;;7.05;2.95;;;;;;;2.90;63.07;101270.28;5396884;26;20637;-53
2024/04/20 05:04:56;;;;;;;5.80;1.30;;;;;;;2.90;63.09;101274.53;5395958;26;20803;-46
2024/04/20 05:07:23;;;;;;;4.45;1.98;;;;;;;2.88;63.34;101277.00;5390010;26;20003;-48
2024/04/20 05:09:50;;;;;;;7.50;2.03;;;;;;;2.89;62.95;101280.44;5382681;26;20073;-45
2024/04/20 05:12:16;;;;;;;5.03;2.42;;;;;;;2.87;63.02;101275.25;5380135;26;20445;-47
2024/04/20 05:14:43;;;;;;;7.78;2.45;;;;;;;2.88;62.96;101283.81;5383341;26;20016;-47
2024/04/20 05:17:10;;;;;;;7.63;1.63;;;;;;;2.87;62.98;101284.63;5380509;26;20011;-46
2024/04/20 05:19:36;;;;;;;3.65;1.95;;;;;;;2.87;63.21;101292.28;5380848;26;20325;-46
2024/04/20 05:22:03;;;;;;;10.50;1.83;;;;;;;2.86;63.20;101293.06;5385610;26;20004;-49
2024/04/20 05:24:30;;;;;;;6.53;1.98;;;;;;;2.86;63.28;101298.19;5384090;26;20016;-47
2024/04/20 05:26:57;;;;;;;5.18;2.85;;;;;;;2.86;63.39;101303.31;5373175;26;20015;-51
2024/04/20 05:29:23;;;;;;;10.48;2.50;;;;;;;2.86;63.22;101304.19;5390899;26;20000;-48
2024/04/20 05:31:50;;;;;;;6.72;2.15;;;;;;;2.83;63.29;101304.94;5386581;26;20012;-48
2024/04/20 05:34:17;;;;;;;5.25;2.03;;;;;;;2.85;63.43;101306.69;5387946;26;20093;-47
2024/04/20 05:36:44;;;;;;;4.13;2.13;;;;;;;2.84;63.38;101305.81;5390421;26;20013;-47
2024/04/20 05:39:11;;;;;;;3.55;2.10;;;;;;;2.85;63.21;101311.78;5382153;26;20028;-49
2024/04/20 05:41:38;;;;;;;3.78;2.50;;;;;;;2.86;63.48;101313.53;5381974;26;20090;-47
2024/04/20 05:44:04;;;;;;;12.73;2.85;;;;;;;2.86;63.64;101317.00;5380838;26;20446;-49
2024/04/20 05:46:32;;;;;;;2.83;2.20;;;;;;;2.87;63.97;101323.00;5385973;26;20000;-47
2024/04/20 05:48:59;;;;;;;4.60;1.35;;;;;;;2.88;63.57;101317.97;5386843;26;20379;-48
2024/04/20 05:51:26;;;;;;;3.03;2.45;;;;;;;2.89;63.70;101318.81;5384885;26;20008;-46
2024/04/20 05:53:53;;;;;;;3.30;1.80;;;;;;;2.89;64.04;101318.81;5386502;26;20022;-47
2024/04/20 05:56:20;;;;;;;6.70;2.13;;;;;;;2.90;63.85;101326.56;5377016;26;20036;-49
2024/04/20 05:58:47;;;;;;;7.57;2.10;;;;;;;2.91;63.83;101324.91;5391709;26;20009;-47
2024/04/20 06:01:15;;;;;;;3.63;1.98;;;;;;;2.92;64.15;101329.22;5388158;26;20070;-48
2024/04/20 06:03:42;;;;;;;2.85;1.83;;;;;;;2.93;64.33;101331.84;5396176;26;20453;-48
2024/04/20 06:06:09;;;;;;;8.73;2.05;;;;;;;2.93;64.26;101341.19;5387446;26;20015;-49
2024/04/20 06:08:36;;;;;;;6.20;2.45;;;;;;;2.97;64.15;101337.13;5384827;26;20044;-46
2024/04/20 06:11:04;;;;;;;3.88;2.13;;;;;;;3.00;64.54;101340.72;5386107;26;20036;-48
2024/04/20 06:13:31;;;;;;;7.80;2.15;;;;;;;3.03;64.61;101335.75;5383720;26;20004;-46
2024/04/20 06:15:58;;;;;;;3.35;2.00;;;;;;;3.05;64.60;101334.16;5384060;26;20036;-48
2024/04/20 06:18:26;;;;;;;2.17;1.50;;;;;;;3.11;64.65;101340.38;5388712;26;20026;-49
2024/04/20 06:20:52;;;;;;;7.75;2.75;;;;;;;3.13;64.98;101342.19;5381312;26;20012;-48
2024/04/20 06:23:19;;;;;;;5.30;1.25;;;;;;;3.18;64.74;101350.09;5392495;26;20345;-46
2024/04/20 06:25:48;;;;;;;3.63;1.30;;;;;;;3.24;64.88;101349.53;5391573;26;20327;-48
2024/04/20 06:28:14;;;;;;;2.28;1.80;;;;;;;3.29;65.05;101356.63;5386690;26;20898;-46
2024/04/20 06:30:41;;;;;;;3.08;1.80;;;;;;;3.29;65.89;101356.63;5382764;26;20469;-49
2024/04/20 06:33:08;;;;;;;2.83;2.45;;;;;;;3.37;65.53;101356.13;5377329;26;20001;-49
2024/04/20 06:35:36;;;;;;;5.55;2.47;;;;;;;3.43;66.01;101359.84;5386197;26;20000;-51
2024/04/20 06:38:03;;;;;;;4.78;2.33;;;;;;;3.51;65.98;101367.88;5384013;26;20024;-54
2024/04/20 06:40:30;;;;;;;4.05;1.98;;;;;;;3.59;65.93;101371.69;5383846;26;20457;-48
2024/04/20 06:42:57;;;;;;;8.20;2.13;;;;;;;3.79;65.76;101373.44;5390047;26;20075;-47
2024/04/20 06:45:24;;;;;;;3.80;2.50;;;;;;;4.34;65.40;101369.06;5382454;26;20003;-47
2024/04/20 06:47:51;;;;;;;11.50;2.25;;;;;;;4.97;64.87;101367.44;5380169;26;20004;-47
2024/04/20 06:50:18;;;;;;;3.42;2.10;;;;;;;5.51;64.02;101377.31;5391997;26;20031;-47
2024/04/20 06:52:45;;;;;;;2.63;1.55;;;;;;;6.01;63.20;101374.06;5393305;26;20100;-47
2024/04/20 06:55:13;;;;;;;4.05;2.65;;;;;;;6.48;62.53;101374.91;5375441;26;20011;-46
2024/04/20 06:57:39;;;;;;;2.97;2.55;;;;;;;6.91;62.11;101381.53;5380381;26;20004;-46
2024/04/20 07:00:07;;;;;;;3.95;2.20;;;;;;;7.32;61.10;101382.84;5378589;26;20472;-47
2024/04/20 07:02:34;;;;;;;6.47;2.92;;;;;;;7.63;60.55;101388.97;5378701;26;20004;-50
2024/04/20 07:05:01;;;;;;;7.32;1.92;;;;;;;7.94;60.18;101386.47;5383390;26;20019;-47
2024/04/20 07:07:28;;;;;;;6.15;2.70;;;;;;;8.28;59.64;101394.31;5375619;26;20081;-48
2024/04/20 07:09:54;;;;;;;3.95;2.08;;;;;;;8.60;58.29;101391.78;5388875;26;20491;-46
2024/04/20 07:12:21;;;;;;;5.70;2.88;;;;;;;8.80;58.14;101388.84;5387132;26;20080;-47
2024/04/20 07:14:48;;;;;;;5.25;1.67;;;;;;;9.11;57.94;101390.50;5389574;26;20055;-46
2024/04/20 07:17:15;;;;;;;8.07;1.55;;;;;;;9.40;57.34;101386.88;5386807;26;20364;-45
2024/04/20 07:19:42;;;;;;;3.47;2.10;;;;;;;9.66;56.86;101396.09;5387362;26;20020;-46
2024/04/20 07:22:08;;;;;;;8.45;2.08;;;;;;;9.97;56.18;101395.03;5389912;26;20085;-46
2024/04/20 07:24:35;;;;;;;3.47;2.47;;;;;;;10.14;53.26;101397.13;5380642;26;20072;-46
2024/04/20 07:27:02;;;;;;;4.60;2.40;;;;;;;10.14;53.05;101394.53;5392653;26;20080;-46
2024/04/20 07:29:29;;;;;;;4.97;1.85;;;;;;;10.33;52.99;101402.69;5399042;26;20011;-47
2024/04/20 07:31:56;;;;;;;2.20;2.00;;;;;;;10.45;52.08;101397.78;5391095;26;20058;-46
2024/04/20 07:34:29;;;;;;;10.32;2.13;;;;;;;10.62;52.23;101399.81;5392998;26;19999;-48
2024/04/20 07:36:57;;;;;;;3.63;1.85;;;;;;;10.79;51.53;101406.19;5392924;26;20081;-47
2024/04/20 07:39:24;;;;;;;2.65;1.67;;;;;;;11.05;51.39;101410.09;5386932;26;20035;-48
2024/04/20 07:41:52;;;;;;;2.72;2.17;;;;;;;11.26;51.11;101414.78;5383658;26;20005;-44
2024/04/20 07:44:19;;;;;;;5.75;2.15;;;;;;;11.45;50.63;101409.84;5389643;26;20000;-45
2024/04/20 07:47:03;;;;;;;1.77;1.60;;;;;;;11.70;50.09;101420.63;5384192;26;20427;-47
2024/04/20 07:49:37;;;;;;;5.72;2.28;;;;;;;11.94;50.18;101414.03;5398056;26;20003;-46
2024/04/20 07:52:04;;;;;;;4.35;1.88;;;;;;;12.14;49.19;101429.03;5399981;26;20022;-46
2024/04/20 07:54:31;;;;;;;2.00;1.77;;;;;;;12.29;48.96;101420.56;5392166;26;20008;-49
2024/04/20 07:56:58;;;;;;;7.20;2.60;;;;;;;12.42;48.07;101431.97;5378815;26;20014;-47
2024/04/20 07:59:25;;;;;;;1.50;0.73;;;;;;;12.38;47.72;101428.47;5389470;26;20742;-48
2024/04/20 08:01:52;;;;;;;3.17;2.15;;;;;;;12.62;47.95;101433.91;5395619;26;20408;-46
2024/04/20 08:04:19;;;;;;;1.90;1.40;;;;;;;12.81;47.86;101435.88;5395987;26;20003;-47
2024/04/20 08:06:46;;;;;;;5.70;2.20;;;;;;;12.85;47.43;101437.66;5390293;26;20551;-48
2024/04/20 08:09:13;;;;;;;2.10;1.75;;;;;;;13.00;47.46;101435.19;5393591;26;20014;-49
2024/04/20 08:11:42;;;;;;;4.03;2.53;;;;;;;13.24;46.40;101442.31;5388434;26;20019;-49
2024/04/20 08:14:09;;;;;;;7.90;1.65;;;;;;;13.25;46.07;101436.28;5392057;26;20007;-52
2024/04/20 08:16:35;;;;;;;4.03;2.20;;;;;;;13.26;46.20;101438.00;5393584;26;20016;-49
2024/04/20 08:19:03;;;;;;;7.05;1.98;;;;;;;13.30;45.81;101438.91;5387575;26;20015;-47
2024/04/20 08:21:30;;;;;;;3.33;1.27;;;;;;;13.42;46.16;101443.34;5383693;26;20000;-47
2024/04/20 08:23:57;;;;;;;4.55;2.15;;;;;;;13.50;45.83;101441.69;5384437;26;20013;-47
2024/04/20 08:26:25;;;;;;;1.60;1.33;;;;;;;13.45;45.47;101448.56;5378116;26;20012;-47
2024/04/20 08:28:52;;;;;;;3.15;2.00;;;;;;;13.66;45.78;101453.09;5387563;26;20420;-48
2024/04/20 08:31:19;;;;;;;5.28;1.92;;;;;;;13.84;45.70;101451.47;5374046;26;20004;-47
2024/04/20 08:33:46;;;;;;;3.40;1.67;;;;;;;14.07;45.67;101453.31;5387277;26;20012;-53
2024/04/20 08:36:13;;;;;;;7.22;1.83;;;;;;;14.25;45.37;101457.75;5388577;26;20076;-51
2024/04/20 08:38:40;;;;;;;4.55;2.10;;;;;;;14.43;44.60;101456.09;5386646;26;20010;-48
2024/04/20 08:41:12;;;;;;;3.22;2.38;;;;;;;14.43;44.63;101456.09;5381040;26;20455;-47
2024/04/20 08:43:40;;;;;;;2.63;1.60;;;;;;;14.52;44.43;101459.63;5384412;26;20011;-48
2024/04/20 08:46:11;;;;;;;5.78;2.35;;;;;;;14.67;45.08;101459.66;5388052;26;20004;-48
2024/04/20 08:48:39;;;;;;;3.25;1.73;;;;;;;14.67;44.23;101454.44;5406382;26;20010;-47
2024/04/20 08:51:08;;;;;;;3.53;1.85;;;;;;;14.75;44.20;101453.59;5386196;26;20015;-48
2024/04/20 08:53:39;;;;;;;6.55;2.13;;;;;;;14.77;43.79;101443.22;5395492;26;20388;-48
2024/04/20 08:56:06;;;;;;;5.93;2.42;;;;;;;14.68;43.58;101450.97;5390033;26;20004;-48
2024/04/20 08:58:34;;;;;;;5.28;1.75;;;;;;;14.59;43.38;101447.47;5384829;26;20004;-48
2024/04/20 09:01:03;;;;;;;2.83;1.58;;;;;;;14.57;43.48;101449.22;5373499;26;20012;-48
2024/04/20 09:03:32;;;;;;;3.50;2.00;;;;;;;14.73;44.05;101439.69;5366508;26;20011;-49
2024/04/20 09:06:00;;;;;;;3.33;2.05;;;;;;;14.83;43.22;101445.81;5402880;26;20008;-46
2024/04/20 09:08:28;;;;;;;5.75;2.35;;;;;;;14.62;43.34;101447.47;5390843;26;20084;-49
2024/04/20 09:10:54;;;;;;;1.92;1.83;;;;;;;14.46;43.82;101445.69;5379853;26;20012;-50
2024/04/20 09:13:21;;;;;;;1.75;1.65;;;;;;;14.44;43.27;101447.41;5384517;26;20012;-46
2024/04/20 09:15:48;;;;;;;4.68;1.88;;;;;;;14.58;43.35;101450.94;5375414;26;20465;-48
2024/04/20 09:18:16;;;;;;;2.97;1.48;;;;;;;14.48;42.83;101449.16;5384732;26;20021;-48
2024/04/20 09:20:45;;;;;;;3.63;1.70;;;;;;;14.36;41.91;101456.06;5383204;26;20068;-47
2024/04/20 09:23:12;;;;;;;3.47;2.20;;;;;;;14.47;42.55;101458.75;5384118;26;20080;-47
2024/04/20 09:25:38;;;;;;;1.17;0.47;;;;;;;14.53;42.54;101452.69;5377292;26;20323;-46
2024/04/20 09:28:06;;;;;;;5.20;1.90;;;;;;;14.53;41.99;101458.75;5378939;26;20026;-49
2024/04/20 09:30:33;;;;;;;3.38;1.63;;;;;;;14.53;42.13;101463.09;5387974;26;20015;-50
2024/04/20 09:33:01;;;;;;;8.32;2.65;;;;;;;14.55;42.60;101463.97;5393204;26;20018;-49
2024/04/20 09:35:28;;;;;;;3.42;2.22;;;;;;;14.31;42.55;101457.78;5380885;26;20053;-47
2024/04/20 09:37:59;;;;;;;2.45;2.17;;;;;;;14.36;43.39;101466.50;5397203;26;20026;-50
2024/04/20 09:40:27;;;;;;;5.50;1.75;;;;;;;14.54;43.05;101462.22;5398242;26;20021;-51
2024/04/20 09:42:57;;;;;;;4.10;2.03;;;;;;;14.86;43.83;101466.69;5382400;26;20000;-50
2024/04/20 09:45:28;;;;;;;4.40;2.85;;;;;;;15.11;43.58;101461.53;5378504;26;20016;-48
2024/04/20 09:47:57;;;;;;;3.30;2.50;;;;;;;15.15;43.40;101463.28;5397567;26;20035;-50
2024/04/20 09:50:26;;;;;;;2.38;1.65;;;;;;;14.94;42.29;101453.69;5346169;26;19996;-48
2024/04/20 09:53:01;;;;;;;3.85;2.42;;;;;;;14.71;42.38;101461.41;5377487;26;20077;-48
2024/04/20 09:55:31;;;;;;;3.60;1.70;;;;;;;14.57;42.60;101462.25;5374095;26;20004;-51
2024/04/20 09:58:01;;;;;;;3.00;2.20;;;;;;;14.50;43.17;101463.09;5361046;26;20011;-50
2024/04/20 10:00:33;;;;;;;2.83;2.25;;;;;;;14.65;43.28;101465.75;5365853;26;20022;-47
2024/04/20 10:03:04;;;;;;;3.33;2.58;;;;;;;14.81;43.52;101468.44;5345764;26;20013;-49
2024/04/20 10:05:35;;;;;;;2.40;2.20;;;;;;;14.80;42.96;101471.91;5379235;26;20050;-48
2024/04/20 10:08:03;;;;;;;3.58;1.98;;;;;;;14.61;42.12;101477.03;5376323;26;20008;-52
2024/04/20 10:10:30;;;;;;;2.95;2.00;;;;;;;14.32;42.12;101476.91;5386957;26;20016;-48
2024/04/20 10:13:02;;;;;;;4.70;1.73;;;;;;;13.96;42.88;101476.72;5383526;26;20445;-51
2024/04/20 10:15:30;;;;;;;3.95;2.45;;;;;;;13.65;43.25;101466.09;5381560;26;20035;-48
2024/04/20 10:17:58;;;;;;;3.60;1.83;;;;;;;13.66;42.99;101467.84;5392507;26;20031;-46
2024/04/20 10:20:32;;;;;;;3.83;1.90;;;;;;;13.82;43.73;101474.03;5387600;26;20007;-48
2024/04/20 10:23:00;;;;;;;5.00;2.38;;;;;;;14.00;43.18;101473.28;5383523;26;20012;-48
2024/04/20 10:25:31;;;;;;;4.60;3.35;;;;;;;14.05;43.35;101466.34;5374436;26;20023;-49
2024/04/20 10:27:58;;;;;;;2.97;2.05;;;;;;;13.87;42.86;101478.41;5386737;26;20009;-47
2024/04/20 10:30:25;;;;;;;3.33;1.23;;;;;;;13.70;42.72;101469.59;5390477;26;20334;-52
2024/04/20 10:33:06;;;;;;;2.08;1.58;;;;;;;13.52;43.35;101466.00;5392945;26;20008;-49
2024/04/20 10:35:34;;;;;;;5.18;2.58;;;;;;;13.44;43.49;101472.88;5394339;26;20019;-51
2024/04/20 10:38:02;;;;;;;3.50;2.28;;;;;;;13.49;44.53;101471.19;5380211;26;20020;-47
2024/04/20 10:40:31;;;;;;;3.65;1.95;;;;;;;13.39;43.72;101467.63;5397515;26;20013;-52
2024/04/20 10:43:20;;;;;;;2.85;2.05;;;;;;;13.30;43.75;101478.81;5393425;26;20056;-50
2024/04/20 10:45:59;;;;;;;4.45;1.55;;;;;;;13.39;43.39;101469.34;5376132;26;20030;-50
2024/04/20 10:48:26;;;;;;;3.67;2.33;;;;;;;13.44;44.08;101472.88;5381579;26;20011;-49
2024/04/20 10:51:04;;;;;;;5.45;2.08;;;;;;;13.42;43.89;101464.16;5386040;26;20426;-49
2024/04/20 10:53:31;;;;;;;2.40;0.93;;;;;;;13.47;44.05;101467.66;5382734;26;20508;-47
2024/04/20 10:55:59;;;;;;;2.75;1.00;;;;;;;13.56;44.63;101469.50;5380955;26;20407;-49
2024/04/20 10:58:27;;;;;;;2.17;1.63;;;;;;;13.65;43.75;101467.00;5375185;26;20039;-49
2024/04/20 11:00:59;;;;;;;2.95;2.75;;;;;;;13.57;43.32;101466.91;5373533;26;20010;-47
2024/04/20 11:03:26;;;;;;;3.03;2.22;;;;;;;13.49;43.66;101464.25;5378523;26;20000;-49
2024/04/20 11:05:54;;;;;;;3.08;2.00;;;;;;;13.56;44.08;101470.38;5379848;26;20022;-50
2024/04/20 11:08:23;;;;;;;3.83;2.53;;;;;;;13.49;44.03;101471.19;5397728;26;20012;-50
2024/04/20 11:11:00;;;;;;;3.67;3.20;;;;;;;13.27;43.45;101468.38;5390031;26;20008;-47
2024/04/20 11:13:27;;;;;;;1.90;1.45;;;;;;;13.17;43.98;101464.81;5380456;26;20481;-48
2024/04/20 11:15:54;;;;;;;2.83;2.53;;;;;;;13.04;43.92;101468.16;5392825;26;20412;-52
2024/04/20 11:18:21;;;;;;;3.25;1.88;;;;;;;12.99;43.85;101478.50;5382122;26;20004;-47
2024/04/20 11:20:48;;;;;;;4.38;2.00;;;;;;;13.06;44.52;101477.72;5379601;26;20024;-48
2024/04/20 11:23:15;;;;;;;3.55;2.00;;;;;;;13.15;44.62;101481.25;5384013;26;20077;-48
2024/04/20 11:25:51;;;;;;;4.22;2.25;;;;;;;13.34;44.81;101480.56;5384293;26;20001;-50
2024/04/20 11:28:18;;;;;;;2.70;1.92;;;;;;;13.36;43.99;101481.47;5376606;26;20014;-48
2024/04/20 11:30:45;;;;;;;2.50;1.98;;;;;;;13.35;44.65;101484.91;5385150;26;20020;-50
2024/04/20 11:33:12;;;;;;;3.72;2.03;;;;;;;13.27;44.18;101481.38;5389969;26;20019;-48